Bayanbulak, China
Current Conditions -  °F | °C
As of 4:00 AM on Wednesday 22 Oct 2014 (Local Time) from ZWWW Reporting Station
Clear Clear  
Wind Chill: 54°   Ceiling: Unl
Heat Index: 54°   Visibility: 6mi
Dew Point: 41°   Wind: 2mph
Humidity: 62%   Direction: 190°S
Pressure: 30.3"   Gusts: NA
Location:  43.03°N, 84.15°E
Report Text: ZWWW 212000Z 19001MPS CAVOK 12/05 Q1026 NOSIG
Loading
Personal Weather Stations






























Interactive Weather Map
Tropical Storm Tracking
New forecast layout! Learn more

10-Day Weather Forecast

Advertisements
Track Severe Weather on mobile